Time;durP1;ratioP1;P1;durP2;ratioP2;P2;SDS_P1;SDS_P2;PMS_P1;PMS_P2;Temp;Humidity;BMP_temperature;BMP_pressure;BME280_temperature;BME280_humidity;BME280_pressure;Samples;Min_cycle;Max_cycle;Signal;HPM_P1;HPM_P2
2021/09/03 00:00:33;;;;;;;878.15;782.22;;;;;;;;;;5006842;28;20033;-74
2021/09/03 00:02:59;;;;;;;870.35;774.88;;;;;;;;;;5003495;28;20021;-74
2021/09/03 00:05:25;;;;;;;862.17;767.58;;;;;;;;;;5028195;28;20037;-74
2021/09/03 00:07:51;;;;;;;881.45;785.45;;;;;;;;;;5006792;28;20045;-74
2021/09/03 00:10:18;;;;;;;874.45;778.65;;;;;;;;;;5010293;28;20021;-74
2021/09/03 00:12:44;;;;;;;876.47;780.70;;;;;;;;;;5017243;28;20523;-74
2021/09/03 00:15:11;;;;;;;872.38;776.92;;;;;;;;;;5004183;28;20469;-74
2021/09/03 00:17:38;;;;;;;876.00;780.28;;;;;;;;;;5009913;28;20108;-75
2021/09/03 00:20:05;;;;;;;872.15;776.67;;;;;;;;;;5025100;28;20037;-74
2021/09/03 00:22:31;;;;;;;858.08;763.45;;;;;;;;;;5018146;28;20116;-74
2021/09/03 00:24:57;;;;;;;873.38;778.00;;;;;;;;;;5010324;28;20121;-74
2021/09/03 00:27:23;;;;;;;873.38;777.80;;;;;;;;;;5023636;28;20022;-73
2021/09/03 00:29:49;;;;;;;864.05;768.58;;;;;;;;;;5029391;28;20032;-74
2021/09/03 00:32:15;;;;;;;866.03;770.38;;;;;;;;;;5008343;28;20018;-74
2021/09/03 00:34:41;;;;;;;865.85;770.30;;;;;;;;;;5016856;28;20038;-74
2021/09/03 00:37:07;;;;;;;861.90;766.70;;;;;;;;;;5012193;28;20124;-74
2021/09/03 00:39:34;;;;;;;859.78;763.63;;;;;;;;;;5012028;28;20124;-74
2021/09/03 00:42:00;;;;;;;855.10;759.00;;;;;;;;;;5007644;28;20046;-74
2021/09/03 00:44:26;;;;;;;863.13;767.65;;;;;;;;;;5021907;28;20104;-74
2021/09/03 00:46:52;;;;;;;856.47;757.95;;;;;;;;;;5028756;28;20034;-74
2021/09/03 00:49:18;;;;;;;858.47;760.58;;;;;;;;;;5007090;28;20022;-75
2021/09/03 00:51:44;;;;;;;856.35;754.38;;;;;;;;;;5024455;28;20374;-74
2021/09/03 00:54:10;;;;;;;851.47;748.47;;;;;;;;;;5025489;28;20061;-74
2021/09/03 00:56:36;;;;;;;908.97;809.30;;;;;;;;;;5005074;28;20029;-74
2021/09/03 00:59:02;;;;;;;903.50;804.42;;;;;;;;;;5027232;28;20029;-74
2021/09/03 01:01:28;;;;;;;906.75;807.08;;;;;;;;;;5016407;28;20022;-74
2021/09/03 01:03:54;;;;;;;905.95;806.63;;;;;;;;;;5024282;28;20040;-74
2021/09/03 01:06:20;;;;;;;898.65;799.88;;;;;;;;;;5020843;28;20494;-74
2021/09/03 01:08:46;;;;;;;903.05;804.10;;;;;;;;;;5020287;28;20499;-74
2021/09/03 01:11:13;;;;;;;908.00;808.65;;;;;;;;;;5005235;28;20140;-74
2021/09/03 01:13:39;;;;;;;898.53;799.83;;;;;;;;;;5011128;28;20121;-75
2021/09/03 01:16:05;;;;;;;887.15;787.58;;;;;;;;;;5006224;28;20045;-74
2021/09/03 01:18:31;;;;;;;907.67;807.85;;;;;;;;;;5027258;28;20025;-74
2021/09/03 01:20:58;;;;;;;903.80;804.45;;;;;;;;;;5024871;28;20147;-74
2021/09/03 01:23:24;;;;;;;896.83;797.70;;;;;;;;;;5018509;28;20021;-74
2021/09/03 01:25:49;;;;;;;904.03;804.67;;;;;;;;;;5018550;28;20448;-75
2021/09/03 01:28:15;;;;;;;899.83;800.85;;;;;;;;;;5004902;28;20030;-74
2021/09/03 01:30:41;;;;;;;889.65;790.55;;;;;;;;;;5005846;28;20092;-74
2021/09/03 01:33:07;;;;;;;894.80;796.08;;;;;;;;;;5009029;28;20029;-75
2021/09/03 01:35:33;;;;;;;897.30;798.17;;;;;;;;;;5008632;28;20397;-74
2021/09/03 01:38:00;;;;;;;892.60;793.38;;;;;;;;;;5024839;28;20029;-75
2021/09/03 01:40:26;;;;;;;891.88;792.90;;;;;;;;;;5019766;28;20416;-74
2021/09/03 01:42:52;;;;;;;888.42;789.10;;;;;;;;;;5018670;28;20058;-74
2021/09/03 01:45:18;;;;;;;886.92;787.28;;;;;;;;;;5024527;28;20053;-74
2021/09/03 01:47:44;;;;;;;893.08;794.10;;;;;;;;;;5018087;28;20026;-74
2021/09/03 01:50:11;;;;;;;895.08;794.75;;;;;;;;;;5010048;28;20083;-74
2021/09/03 01:52:37;;;;;;;897.00;797.60;;;;;;;;;;5030728;28;20523;-74
2021/09/03 01:55:03;;;;;;;883.80;778.65;;;;;;;;;;5017159;28;20040;-74
2021/09/03 01:57:29;;;;;;;894.50;795.80;;;;;;;;;;5027506;28;20038;-74
2021/09/03 01:59:55;;;;;;;890.25;791.33;;;;;;;;;;5013169;28;20079;-75
2021/09/03 02:02:21;;;;;;;888.30;788.20;;;;;;;;;;5012557;28;20125;-75
2021/09/03 02:04:47;;;;;;;886.95;784.58;;;;;;;;;;5022741;28;20040;-75
2021/09/03 02:07:13;;;;;;;887.67;787.30;;;;;;;;;;5026320;28;20029;-75
2021/09/03 02:09:39;;;;;;;889.55;785.92;;;;;;;;;;5007203;28;20040;-75
2021/09/03 02:12:05;;;;;;;888.95;784.55;;;;;;;;;;5014902;28;20025;-74
2021/09/03 02:14:31;;;;;;;889.20;785.00;;;;;;;;;;5028552;28;20025;-74
2021/09/03 02:16:57;;;;;;;890.80;789.92;;;;;;;;;;5026101;28;20401;-75
2021/09/03 02:19:23;;;;;;;890.72;785.42;;;;;;;;;;5020408;28;20655;-75
2021/09/03 02:21:49;;;;;;;888.83;781.20;;;;;;;;;;4996444;28;20490;-75
2021/09/03 02:24:15;;;;;;;888.63;780.63;;;;;;;;;;5009212;28;20052;-75
2021/09/03 02:26:41;;;;;;;887.85;781.67;;;;;;;;;;5023407;28;20025;-75
2021/09/03 02:29:07;;;;;;;885.75;774.65;;;;;;;;;;5014217;28;20125;-75
2021/09/03 02:31:33;;;;;;;891.83;780.92;;;;;;;;;;5025123;28;20033;-75
2021/09/03 02:33:59;;;;;;;881.55;772.17;;;;;;;;;;5012778;28;20480;-74
2021/09/03 02:36:25;;;;;;;884.85;776.88;;;;;;;;;;5016024;28;20036;-74
2021/09/03 02:38:51;;;;;;;892.42;784.92;;;;;;;;;;5017328;28;20026;-75
2021/09/03 02:41:16;;;;;;;897.00;790.15;;;;;;;;;;4998838;28;20437;-75
2021/09/03 02:43:42;;;;;;;891.30;774.08;;;;;;;;;;5010501;28;20033;-75
2021/09/03 02:46:08;;;;;;;894.63;780.53;;;;;;;;;;5001842;28;20025;-75
2021/09/03 02:48:34;;;;;;;892.75;781.00;;;;;;;;;;5025954;28;20013;-75
2021/09/03 02:51:00;;;;;;;886.47;768.53;;;;;;;;;;5005952;28;20116;-75
2021/09/03 02:53:26;;;;;;;891.88;774.72;;;;;;;;;;5019866;28;20018;-77
2021/09/03 02:55:52;;;;;;;897.50;790.28;;;;;;;;;;5002208;28;20036;-74
2021/09/03 02:58:18;;;;;;;890.28;772.78;;;;;;;;;;5020744;28;20025;-75
2021/09/03 03:00:44;;;;;;;889.58;768.53;;;;;;;;;;4999562;28;20036;-75
2021/09/03 03:03:10;;;;;;;889.20;766.30;;;;;;;;;;5006079;28;20041;-75
2021/09/03 03:05:36;;;;;;;890.30;771.97;;;;;;;;;;5008037;28;20643;-75
2021/09/03 03:08:02;;;;;;;885.00;764.53;;;;;;;;;;5022386;28;20466;-75
2021/09/03 03:10:28;;;;;;;891.42;768.47;;;;;;;;;;5017062;28;20034;-75
2021/09/03 03:12:54;;;;;;;897.22;773.92;;;;;;;;;;5006804;28;20365;-75
2021/09/03 03:15:22;;;;;;;895.40;772.22;;;;;;;;;;4996746;28;20022;-75
2021/09/03 03:17:48;;;;;;;900.40;779.17;;;;;;;;;;5025927;28;20493;-75
2021/09/03 03:20:16;;;;;;;902.58;788.20;;;;;;;;;;5023331;28;20028;-75
2021/09/03 03:22:42;;;;;;;899.50;773.50;;;;;;;;;;5012021;28;20029;-75
2021/09/03 03:25:08;;;;;;;899.47;777.58;;;;;;;;;;5029946;28;20076;-75
2021/09/03 03:27:34;;;;;;;893.67;769.60;;;;;;;;;;4999627;28;20030;-74
2021/09/03 03:30:01;;;;;;;900.00;781.80;;;;;;;;;;5030653;28;20032;-75
2021/09/03 03:32:27;;;;;;;894.72;771.75;;;;;;;;;;5013471;28;20100;-75
2021/09/03 03:34:53;;;;;;;896.42;774.78;;;;;;;;;;5024223;28;20116;-75
2021/09/03 03:37:19;;;;;;;895.92;772.78;;;;;;;;;;5028980;28;20033;-75
2021/09/03 03:39:45;;;;;;;943.92;768.45;;;;;;;;;;5010278;28;20037;-75
2021/09/03 03:42:11;;;;;;;1999.90;826.65;;;;;;;;;;5026310;28;20045;-74
2021/09/03 03:44:37;;;;;;;899.33;783.80;;;;;;;;;;5002928;28;20492;-74
2021/09/03 03:47:04;;;;;;;895.33;773.40;;;;;;;;;;4998109;28;20385;-74
2021/09/03 03:49:30;;;;;;;894.72;769.28;;;;;;;;;;5029963;28;20108;-75
2021/09/03 03:51:56;;;;;;;892.13;763.47;;;;;;;;;;5009888;28;20053;-75
2021/09/03 03:54:22;;;;;;;906.15;790.97;;;;;;;;;;5006664;28;20425;-77
2021/09/03 03:56:48;;;;;;;899.50;778.17;;;;;;;;;;4997630;28;20071;-77
2021/09/03 03:59:14;;;;;;;891.42;763.45;;;;;;;;;;5001351;28;20631;-77
2021/09/03 04:01:40;;;;;;;894.33;767.08;;;;;;;;;;5012701;28;20029;-74
2021/09/03 04:04:06;;;;;;;893.67;766.17;;;;;;;;;;5028862;28;20033;-74
2021/09/03 04:06:32;;;;;;;897.97;773.38;;;;;;;;;;5000985;28;20033;-74
2021/09/03 04:08:58;;;;;;;900.28;783.72;;;;;;;;;;4999357;28;20371;-75
2021/09/03 04:11:25;;;;;;;894.72;770.67;;;;;;;;;;5009321;28;20638;-75
2021/09/03 04:13:51;;;;;;;892.78;771.50;;;;;;;;;;5006981;28;20061;-75
2021/09/03 04:16:17;;;;;;;896.45;777.97;;;;;;;;;;5022835;28;20128;-75
2021/09/03 04:18:43;;;;;;;891.58;769.05;;;;;;;;;;5025014;28;20036;-75
2021/09/03 04:21:09;;;;;;;899.67;781.47;;;;;;;;;;5011093;28;21247;-75
2021/09/03 04:23:35;;;;;;;893.83;773.42;;;;;;;;;;5006602;28;20664;-75
2021/09/03 04:26:01;;;;;;;899.90;781.75;;;;;;;;;;5009344;28;20560;-75
2021/09/03 04:28:27;;;;;;;895.08;772.25;;;;;;;;;;5022558;28;20025;-75
2021/09/03 04:30:53;;;;;;;892.53;768.90;;;;;;;;;;5019685;28;20112;-75
2021/09/03 04:33:19;;;;;;;893.85;773.35;;;;;;;;;;5014024;28;20022;-76
2021/09/03 04:35:45;;;;;;;900.17;778.88;;;;;;;;;;5005340;28;20722;-75
2021/09/03 04:38:11;;;;;;;898.05;779.15;;;;;;;;;;5003440;28;20037;-75
2021/09/03 04:40:37;;;;;;;891.30;767.53;;;;;;;;;;5022968;28;20091;-75
2021/09/03 04:43:03;;;;;;;871.70;743.58;;;;;;;;;;5005368;28;20137;-75
2021/09/03 04:45:29;;;;;;;874.30;751.88;;;;;;;;;;5026783;28;20100;-75
2021/09/03 04:47:55;;;;;;;871.65;745.50;;;;;;;;;;5004939;28;20374;-75
2021/09/03 04:50:21;;;;;;;876.75;755.30;;;;;;;;;;4998509;28;20293;-75
2021/09/03 04:52:47;;;;;;;875.08;750.35;;;;;;;;;;5017742;28;20056;-75
2021/09/03 04:55:13;;;;;;;872.75;747.45;;;;;;;;;;4998009;28;20464;-75
2021/09/03 04:57:40;;;;;;;873.22;746.60;;;;;;;;;;5024775;28;20055;-75
2021/09/03 05:00:07;;;;;;;872.38;745.22;;;;;;;;;;5002941;28;20033;-75
2021/09/03 05:02:33;;;;;;;874.85;749.10;;;;;;;;;;5021582;28;20021;-75
2021/09/03 05:04:59;;;;;;;875.50;752.88;;;;;;;;;;5019266;28;20033;-75
2021/09/03 05:07:27;;;;;;;873.30;743.85;;;;;;;;;;5011377;28;20030;-77
2021/09/03 05:09:53;;;;;;;875.47;749.58;;;;;;;;;;5025240;28;20630;-75
2021/09/03 05:12:19;;;;;;;856.65;721.88;;;;;;;;;;5019933;28;20026;-75
2021/09/03 05:14:45;;;;;;;871.33;742.92;;;;;;;;;;5017369;28;20045;-75
2021/09/03 05:17:11;;;;;;;874.58;744.65;;;;;;;;;;5012036;28;20456;-75
2021/09/03 05:19:37;;;;;;;880.67;755.03;;;;;;;;;;5000246;28;20021;-75
2021/09/03 05:22:03;;;;;;;873.63;746.30;;;;;;;;;;5021386;28;20060;-75
2021/09/03 05:24:29;;;;;;;878.75;757.67;;;;;;;;;;5008463;28;20436;-75
2021/09/03 05:26:55;;;;;;;876.88;753.35;;;;;;;;;;5025968;28;20037;-75
2021/09/03 05:29:21;;;;;;;872.92;747.33;;;;;;;;;;5009982;28;20112;-75
2021/09/03 05:31:47;;;;;;;876.35;749.38;;;;;;;;;;5021105;28;20393;-75
2021/09/03 05:34:13;;;;;;;875.55;749.00;;;;;;;;;;5016358;28;20026;-75
2021/09/03 05:36:39;;;;;;;877.28;753.03;;;;;;;;;;5011499;28;20038;-75
2021/09/03 05:39:05;;;;;;;877.58;747.65;;;;;;;;;;5025256;28;20400;-75
2021/09/03 05:41:31;;;;;;;878.28;757.00;;;;;;;;;;5023714;28;20041;-75
2021/09/03 05:43:57;;;;;;;877.88;752.28;;;;;;;;;;5025283;28;20443;-75
2021/09/03 05:46:22;;;;;;;875.92;751.00;;;;;;;;;;5008577;28;20037;-75
2021/09/03 05:48:48;;;;;;;877.22;754.80;;;;;;;;;;5012119;28;20087;-75
2021/09/03 05:51:14;;;;;;;877.50;755.97;;;;;;;;;;5006926;28;20037;-75
2021/09/03 05:53:40;;;;;;;879.63;763.42;;;;;;;;;;5010885;28;20100;-75
2021/09/03 05:56:06;;;;;;;877.53;754.42;;;;;;;;;;5003668;28;20374;-75
2021/09/03 05:58:35;;;;;;;877.92;765.58;;;;;;;;;;5021397;28;20112;-75
2021/09/03 06:01:01;;;;;;;877.53;763.15;;;;;;;;;;5003217;28;20067;-75
2021/09/03 06:03:27;;;;;;;881.65;768.17;;;;;;;;;;5007373;28;20054;-77
2021/09/03 06:05:53;;;;;;;875.53;757.20;;;;;;;;;;5025852;28;20052;-75
2021/09/03 06:08:19;;;;;;;884.05;771.20;;;;;;;;;;5007582;28;20025;-75
2021/09/03 06:10:45;;;;;;;882.47;773.67;;;;;;;;;;5007228;28;20469;-75
2021/09/03 06:13:11;;;;;;;875.45;765.20;;;;;;;;;;5022068;28;20029;-75
2021/09/03 06:15:37;;;;;;;883.08;777.20;;;;;;;;;;5006464;28;20025;-75
2021/09/03 06:18:03;;;;;;;879.42;771.85;;;;;;;;;;5023022;28;20478;-75
2021/09/03 06:20:29;;;;;;;878.13;778.17;;;;;;;;;;5001117;28;20033;-75
2021/09/03 06:22:55;;;;;;;885.58;787.10;;;;;;;;;;5009029;28;20074;-75
2021/09/03 06:25:21;;;;;;;896.55;798.10;;;;;;;;;;4997097;28;20053;-75
2021/09/03 06:27:47;;;;;;;881.75;783.67;;;;;;;;;;5016624;28;20528;-75
2021/09/03 06:30:14;;;;;;;881.05;782.42;;;;;;;;;;5003086;28;20086;-75
2021/09/03 06:32:40;;;;;;;893.40;795.50;;;;;;;;;;5022699;28;20600;-75
2021/09/03 06:35:07;;;;;;;901.40;802.65;;;;;;;;;;5008815;28;20197;-75
2021/09/03 06:37:33;;;;;;;888.72;790.92;;;;;;;;;;5026611;28;20022;-74
2021/09/03 06:40:00;;;;;;;891.45;793.60;;;;;;;;;;5024847;28;20036;-74
2021/09/03 06:42:28;;;;;;;905.95;807.65;;;;;;;;;;5024310;28;20050;-74
2021/09/03 06:44:54;;;;;;;913.50;814.67;;;;;;;;;;5022527;28;20036;-76
2021/09/03 06:47:20;;;;;;;915.38;816.55;;;;;;;;;;5012080;28;20021;-75
2021/09/03 06:49:46;;;;;;;897.40;799.63;;;;;;;;;;5025130;28;20358;-74
2021/09/03 06:52:13;;;;;;;902.75;804.85;;;;;;;;;;5010733;28;20393;-75
2021/09/03 06:54:39;;;;;;;924.70;825.83;;;;;;;;;;5011212;28;20026;-74
2021/09/03 06:57:05;;;;;;;924.00;825.35;;;;;;;;;;5009949;28;20077;-74
2021/09/03 06:59:31;;;;;;;923.30;824.80;;;;;;;;;;5026693;28;20064;-73
2021/09/03 07:01:58;;;;;;;932.85;833.67;;;;;;;;;;5005188;28;20028;-74
2021/09/03 07:04:24;;;;;;;933.80;834.90;;;;;;;;;;5008997;28;20455;-73
2021/09/03 07:06:50;;;;;;;939.88;840.90;;;;;;;;;;5012176;28;20052;-73
2021/09/03 07:09:16;;;;;;;943.80;844.50;;;;;;;;;;5022303;28;20022;-73
2021/09/03 07:11:42;;;;;;;945.75;846.65;;;;;;;;;;5005629;28;20045;-74
2021/09/03 07:14:08;;;;;;;954.60;854.90;;;;;;;;;;5014850;28;20053;-73
2021/09/03 07:16:34;;;;;;;962.10;862.03;;;;;;;;;;5023813;28;20029;-72
2021/09/03 07:19:02;;;;;;;971.55;871.22;;;;;;;;;;5021805;28;20032;-74
2021/09/03 07:21:29;;;;;;;971.22;871.00;;;;;;;;;;5001540;28;20080;-74
2021/09/03 07:23:58;;;;;;;977.30;876.55;;;;;;;;;;5019022;28;20038;-74
2021/09/03 07:26:26;;;;;;;972.10;872.40;;;;;;;;;;5001894;28;20387;-74
2021/09/03 07:28:53;;;;;;;988.22;887.55;;;;;;;;;;5011736;28;20071;-75
2021/09/03 07:31:19;;;;;;;989.42;888.78;;;;;;;;;;5004262;28;20090;-74
2021/09/03 07:33:45;;;;;;;991.72;891.25;;;;;;;;;;5003216;28;20476;-75
2021/09/03 07:36:11;;;;;;;734.00;631.13;;;;;;;;;;5006015;28;20033;-75
2021/09/03 07:38:38;;;;;;;999.42;898.70;;;;;;;;;;5020509;28;20552;-74
2021/09/03 07:41:04;;;;;;;1005.38;904.35;;;;;;;;;;5009996;28;20433;-74
2021/09/03 07:43:30;;;;;;;1004.60;903.70;;;;;;;;;;5008802;28;20025;-74
2021/09/03 07:45:56;;;;;;;1019.80;918.10;;;;;;;;;;5008214;28;20498;-74
2021/09/03 07:48:23;;;;;;;1020.05;918.30;;;;;;;;;;5024870;28;20024;-74
2021/09/03 07:50:49;;;;;;;1024.35;922.70;;;;;;;;;;5007149;28;20075;-74
2021/09/03 07:53:15;;;;;;;1027.68;925.60;;;;;;;;;;5028245;28;20096;-73
2021/09/03 07:55:41;;;;;;;1032.70;930.58;;;;;;;;;;5020585;28;20195;-74
2021/09/03 07:58:07;;;;;;;1039.60;937.25;;;;;;;;;;5001874;28;20064;-75
2021/09/03 08:00:34;;;;;;;1035.57;933.53;;;;;;;;;;5021007;28;20025;-73
2021/09/03 08:03:00;;;;;;;1043.95;941.67;;;;;;;;;;5017891;28;20751;-75
2021/09/03 08:05:26;;;;;;;1050.93;947.92;;;;;;;;;;5006809;28;20022;-74
2021/09/03 08:07:52;;;;;;;1053.90;951.05;;;;;;;;;;5009617;28;20017;-74
2021/09/03 08:10:18;;;;;;;1058.95;955.92;;;;;;;;;;5021107;28;20277;-74
2021/09/03 08:12:45;;;;;;;1070.60;966.95;;;;;;;;;;5004328;28;20080;-75
2021/09/03 08:15:12;;;;;;;1065.68;962.30;;;;;;;;;;5022048;28;20527;-76
2021/09/03 08:17:38;;;;;;;1076.65;972.88;;;;;;;;;;5009361;28;20059;-74
2021/09/03 08:20:05;;;;;;;1089.45;984.78;;;;;;;;;;5010108;28;20064;-75
2021/09/03 08:22:31;;;;;;;1083.38;979.45;;;;;;;;;;5016485;28;20033;-75
2021/09/03 08:24:57;;;;;;;1101.05;995.33;;;;;;;;;;5003851;28;20045;-75
2021/09/03 08:27:23;;;;;;;1102.45;996.78;;;;;;;;;;4991422;28;20423;-76
2021/09/03 08:29:49;;;;;;;1111.10;999.83;;;;;;;;;;5001940;28;20029;-76
2021/09/03 08:32:16;;;;;;;1114.00;999.90;;;;;;;;;;5019958;28;20380;-76
2021/09/03 08:34:42;;;;;;;1118.03;999.90;;;;;;;;;;5021407;28;20033;-75
2021/09/03 08:37:08;;;;;;;1125.18;999.90;;;;;;;;;;5021013;28;20347;-76
2021/09/03 08:39:34;;;;;;;1128.57;999.90;;;;;;;;;;5022331;28;20173;-75
2021/09/03 08:42:00;;;;;;;1134.28;999.90;;;;;;;;;;5005451;28;20136;-76
2021/09/03 08:44:30;;;;;;;1137.43;999.90;;;;;;;;;;5020696;28;20044;-73
2021/09/03 08:46:56;;;;;;;1146.47;999.90;;;;;;;;;;5018437;28;20031;-75
2021/09/03 08:49:22;;;;;;;1146.57;999.90;;;;;;;;;;5018180;28;20018;-75
2021/09/03 08:51:48;;;;;;;1143.75;999.90;;;;;;;;;;5023192;28;20087;-76
2021/09/03 08:54:14;;;;;;;1151.75;999.90;;;;;;;;;;5015573;28;20034;-74
2021/09/03 08:56:40;;;;;;;1157.90;999.90;;;;;;;;;;5004640;28;20091;-76
2021/09/03 08:59:08;;;;;;;1151.57;999.90;;;;;;;;;;5024836;28;20037;-76
2021/09/03 09:01:34;;;;;;;1151.03;999.90;;;;;;;;;;5010971;28;20022;-75
2021/09/03 09:04:08;;;;;;;1157.40;999.90;;;;;;;;;;5011174;28;20075;-75
2021/09/03 09:06:34;;;;;;;1151.53;999.90;;;;;;;;;;5005328;28;20041;-75
2021/09/03 09:09:06;;;;;;;1142.28;999.90;;;;;;;;;;5010202;28;20033;-75
2021/09/03 09:11:33;;;;;;;1155.68;999.90;;;;;;;;;;5027649;28;20025;-76
2021/09/03 09:14:01;;;;;;;1147.50;999.90;;;;;;;;;;5006968;28;20033;-75
2021/09/03 09:16:30;;;;;;;1149.18;999.90;;;;;;;;;;5004694;28;20026;-73
2021/09/03 09:18:57;;;;;;;1146.45;999.90;;;;;;;;;;5025854;28;20516;-75
2021/09/03 09:21:28;;;;;;;1141.22;999.90;;;;;;;;;;5006467;28;20171;-75
2021/09/03 09:23:56;;;;;;;1142.05;999.90;;;;;;;;;;5027312;28;20530;-75
2021/09/03 09:26:27;;;;;;;1145.80;999.90;;;;;;;;;;5002894;28;20037;-75
2021/09/03 09:28:54;;;;;;;1146.88;999.90;;;;;;;;;;5010994;28;20546;-75
2021/09/03 09:31:37;;;;;;;1138.53;999.90;;;;;;;;;;5026387;28;20022;-76
2021/09/03 09:34:16;;;;;;;1145.80;999.90;;;;;;;;;;5025867;28;20029;-76
2021/09/03 09:36:42;;;;;;;1137.07;999.90;;;;;;;;;;4997870;28;20517;-75
2021/09/03 09:39:08;;;;;;;1131.93;999.90;;;;;;;;;;5000721;28;20030;-76
2021/09/03 09:41:34;;;;;;;1139.40;999.90;;;;;;;;;;5009507;28;20098;-75
2021/09/03 09:44:00;;;;;;;1151.55;999.90;;;;;;;;;;5007151;28;20030;-76
2021/09/03 09:46:27;;;;;;;1136.20;999.90;;;;;;;;;;5027442;28;20028;-76
2021/09/03 09:49:04;;;;;;;1148.38;999.90;;;;;;;;;;5021097;28;20554;-76
2021/09/03 09:51:42;;;;;;;1143.55;999.90;;;;;;;;;;5005508;28;20029;-75
2021/09/03 09:54:11;;;;;;;1143.70;999.90;;;;;;;;;;5007252;28;20431;-76
2021/09/03 09:56:39;;;;;;;1155.38;999.90;;;;;;;;;;5000844;28;20022;-76
2021/09/03 09:59:06;;;;;;;1164.38;999.90;;;;;;;;;;5025540;28;20026;-76
2021/09/03 10:01:34;;;;;;;1183.43;999.90;;;;;;;;;;5008208;28;20034;-76
2021/09/03 10:04:02;;;;;;;1196.35;999.90;;;;;;;;;;4999943;28;20044;-77
2021/09/03 10:06:30;;;;;;;1197.78;999.90;;;;;;;;;;5018609;28;20080;-76
2021/09/03 10:08:56;;;;;;;1207.30;999.90;;;;;;;;;;5006050;28;20723;-76
2021/09/03 10:11:22;;;;;;;1222.28;999.90;;;;;;;;;;5026296;28;20124;-77
2021/09/03 10:13:49;;;;;;;1231.30;999.90;;;;;;;;;;5008991;28;20026;-74
2021/09/03 10:16:15;;;;;;;1235.82;999.90;;;;;;;;;;5022410;28;20037;-73
2021/09/03 10:18:44;;;;;;;1254.78;999.90;;;;;;;;;;5028179;28;20491;-73
2021/09/03 10:21:10;;;;;;;1243.13;999.90;;;;;;;;;;5000177;28;20263;-72
2021/09/03 10:23:55;;;;;;;1243.65;999.90;;;;;;;;;;5021743;28;20022;-73
2021/09/03 10:26:29;;;;;;;1253.35;999.90;;;;;;;;;;5001947;28;20624;-73
2021/09/03 10:29:14;;;;;;;1249.85;999.90;;;;;;;;;;5022452;28;20394;-73
2021/09/03 10:31:58;;;;;;;1263.38;999.90;;;;;;;;;;5021626;28;20066;-75
2021/09/03 10:34:58;;;;;;;1271.80;999.90;;;;;;;;;;5007749;28;20474;-73
2021/09/03 10:37:25;;;;;;;1267.37;999.90;;;;;;;;;;5003872;28;20117;-73
2021/09/03 10:39:53;;;;;;;1278.88;999.90;;;;;;;;;;5028323;28;20272;-74
2021/09/03 10:42:37;;;;;;;1264.20;999.90;;;;;;;;;;5027053;28;20550;-74
2021/09/03 10:45:08;;;;;;;1257.82;999.90;;;;;;;;;;5027693;28;20033;-74
2021/09/03 10:47:43;;;;;;;1271.65;999.90;;;;;;;;;;5003686;28;20018;-74
2021/09/03 10:50:20;;;;;;;1289.45;999.90;;;;;;;;;;5010300;28;20393;-74
2021/09/03 10:53:07;;;;;;;1277.38;999.90;;;;;;;;;;5009666;28;20025;-74
2021/09/03 10:55:52;;;;;;;1268.22;999.90;;;;;;;;;;5022946;28;20523;-74
2021/09/03 10:58:36;;;;;;;1253.32;999.90;;;;;;;;;;5003260;28;20025;-74
2021/09/03 11:01:12;;;;;;;1239.50;999.90;;;;;;;;;;5024501;28;20464;-74
2021/09/03 11:03:47;;;;;;;1246.63;999.90;;;;;;;;;;5025923;28;20032;-75
2021/09/03 11:06:27;;;;;;;1235.38;999.90;;;;;;;;;;5030072;28;20025;-74
2021/09/03 11:08:54;;;;;;;1251.90;999.90;;;;;;;;;;5027230;28;20037;-73
2021/09/03 11:11:27;;;;;;;1252.93;999.90;;;;;;;;;;5020785;28;20049;-74
2021/09/03 11:13:56;;;;;;;1246.38;999.90;;;;;;;;;;5031504;28;20034;-74
2021/09/03 11:16:38;;;;;;;1253.82;999.90;;;;;;;;;;5011185;28;20462;-74
2021/09/03 11:19:10;;;;;;;1245.10;999.90;;;;;;;;;;5010600;28;20060;-74
2021/09/03 11:21:42;;;;;;;1248.07;999.90;;;;;;;;;;5014291;28;20049;-74
2021/09/03 11:24:09;;;;;;;1242.38;999.90;;;;;;;;;;5031387;28;20029;-73
2021/09/03 11:26:36;;;;;;;1246.85;999.90;;;;;;;;;;5011688;28;20088;-73
2021/09/03 11:29:07;;;;;;;1245.13;999.90;;;;;;;;;;5013689;28;20029;-73
2021/09/03 11:31:36;;;;;;;1242.05;999.90;;;;;;;;;;5026961;28;20021;-73
2021/09/03 11:34:06;;;;;;;1246.80;999.90;;;;;;;;;;5017413;28;20033;-73
2021/09/03 11:36:32;;;;;;;;;;;;;;;;;;5026093;28;20061;-73
2021/09/03 11:38:58;;;;;;;1235.68;999.90;;;;;;;;;;5025124;28;19947;-73
2021/09/03 11:41:24;;;;;;;1263.00;999.90;;;;;;;;;;5004605;28;20026;-74
2021/09/03 11:43:50;;;;;;;1260.57;999.90;;;;;;;;;;5019382;28;20029;-74
2021/09/03 11:46:16;;;;;;;1280.18;999.90;;;;;;;;;;5027052;28;20080;-73
2021/09/03 11:48:42;;;;;;;1291.68;999.90;;;;;;;;;;5024557;28;20029;-73
2021/09/03 11:51:15;;;;;;;1310.53;999.90;;;;;;;;;;5004917;28;20033;-73
2021/09/03 11:53:41;;;;;;;1326.30;999.90;;;;;;;;;;5004079;28;20640;-74
2021/09/03 11:56:11;;;;;;;1347.20;999.90;;;;;;;;;;5009772;28;20056;-74
2021/09/03 11:58:37;;;;;;;1369.63;999.90;;;;;;;;;;5028957;28;20347;-73
2021/09/03 12:01:06;;;;;;;1381.60;999.90;;;;;;;;;;5012940;28;20032;-73
2021/09/03 12:03:33;;;;;;;1396.40;999.90;;;;;;;;;;5007233;28;20079;-74
2021/09/03 12:06:00;;;;;;;1394.25;999.90;;;;;;;;;;5002613;28;20037;-74
2021/09/03 12:08:27;;;;;;;1304.97;999.90;;;;;;;;;;5008271;28;20528;-74
2021/09/03 12:10:55;;;;;;;1207.10;999.90;;;;;;;;;;4997628;28;20228;-74
2021/09/03 12:13:30;;;;;;;1399.57;999.90;;;;;;;;;;4998142;28;20041;-73
2021/09/03 12:15:57;;;;;;;872.67;792.70;;;;;;;;;;5015135;28;20037;-74
2021/09/03 12:18:34;;;;;;;651.78;593.60;;;;;;;;;;5003711;28;20489;-74
2021/09/03 12:21:14;;;;;;;1364.90;999.90;;;;;;;;;;5029817;28;20029;-74
2021/09/03 12:23:40;;;;;;;;;;;;;;;;;;5029802;28;20112;-74
2021/09/03 12:26:07;;;;;;;1368.20;999.90;;;;;;;;;;5011389;28;19991;-73
2021/09/03 12:28:34;;;;;;;1381.97;999.90;;;;;;;;;;5009769;28;20052;-73
2021/09/03 12:31:04;;;;;;;1374.10;999.90;;;;;;;;;;5027994;28;20044;-73
2021/09/03 12:33:32;;;;;;;1373.05;999.90;;;;;;;;;;5005610;28;20044;-73
2021/09/03 12:36:03;;;;;;;1352.10;999.90;;;;;;;;;;5011354;28;20432;-74
2021/09/03 12:38:38;;;;;;;1345.88;999.90;;;;;;;;;;5006428;28;20450;-74
2021/09/03 12:41:05;;;;;;;1322.63;999.90;;;;;;;;;;5025087;28;20527;-73
2021/09/03 12:43:31;;;;;;;1323.03;999.90;;;;;;;;;;5005668;28;20053;-74
2021/09/03 12:45:57;;;;;;;1313.68;999.90;;;;;;;;;;5026485;28;20043;-74
2021/09/03 12:48:23;;;;;;;1300.60;999.90;;;;;;;;;;5001912;28;20025;-74
2021/09/03 12:50:49;;;;;;;1287.15;999.90;;;;;;;;;;5002747;28;20053;-73
2021/09/03 12:53:24;;;;;;;1293.38;999.90;;;;;;;;;;5004818;28;20385;-73
2021/09/03 12:55:50;;;;;;;1276.70;999.90;;;;;;;;;;5006373;28;20454;-73
2021/09/03 12:58:16;;;;;;;1261.35;999.90;;;;;;;;;;5007535;28;20467;-73
2021/09/03 13:00:43;;;;;;;1261.57;999.90;;;;;;;;;;5008931;28;20038;-74
2021/09/03 13:03:09;;;;;;;1258.82;999.90;;;;;;;;;;5023950;28;20026;-74
2021/09/03 13:05:35;;;;;;;1255.43;999.90;;;;;;;;;;5008563;28;20029;-74
2021/09/03 13:08:02;;;;;;;1254.88;999.90;;;;;;;;;;5007544;28;20029;-74
2021/09/03 13:10:28;;;;;;;1245.70;999.90;;;;;;;;;;5008319;28;20075;-74
2021/09/03 13:12:54;;;;;;;1249.07;999.90;;;;;;;;;;5023362;28;20018;-74
2021/09/03 13:15:21;;;;;;;1235.43;999.90;;;;;;;;;;5021058;28;20025;-73
2021/09/03 13:17:47;;;;;;;1233.13;999.90;;;;;;;;;;5023051;28;20473;-73
2021/09/03 13:20:14;;;;;;;1232.38;999.90;;;;;;;;;;5024844;28;20051;-74
2021/09/03 13:22:40;;;;;;;1230.32;999.90;;;;;;;;;;5008894;28;20044;-75
2021/09/03 13:25:06;;;;;;;1230.82;999.90;;;;;;;;;;5008811;28;20025;-73
2021/09/03 13:27:32;;;;;;;1241.13;999.90;;;;;;;;;;4998511;28;20025;-73
2021/09/03 13:29:58;;;;;;;1234.70;999.90;;;;;;;;;;5021862;28;20033;-74
2021/09/03 13:32:24;;;;;;;1231.35;999.90;;;;;;;;;;5002312;28;20665;-74
2021/09/03 13:34:50;;;;;;;1226.97;999.90;;;;;;;;;;5020163;28;20052;-74
2021/09/03 13:37:20;;;;;;;1234.03;999.90;;;;;;;;;;5003434;28;20543;-74
2021/09/03 13:39:46;;;;;;;;;;;;;;;;;;5026228;28;20493;-73
2021/09/03 13:42:15;;;;;;;1212.80;999.90;;;;;;;;;;5004036;28;19965;-74
2021/09/03 13:44:42;;;;;;;1207.55;999.90;;;;;;;;;;5019358;28;20056;-73
2021/09/03 13:47:11;;;;;;;1212.15;999.90;;;;;;;;;;4997370;28;20044;-73
2021/09/03 13:49:37;;;;;;;1214.88;999.90;;;;;;;;;;5003587;28;20116;-74